Terminal Aerodrome Forecast
Issued by NWS Charleston, WV

Current Version | Previous Version | Text Only | Print | Product List | Glossary Off
Versions: 1 2 3 4 5 6 7 8 9 10 11 12 13 14 15 16 17 18 19 20 21 22 23 24 25 26

000
FTUS41 KRLX 201431 AAA
TAFCRW
TAF AMD
KCRW 201431Z 2015/2112 00000KT 1/4SM FG OVC001
      TEMPO 2015/2016 2SM BR OVC002
     FM201600 VRB03KT 2SM BR OVC002
      TEMPO 2016/2017 5SM BR BKN006
     FM201700 VRB03KT 5SM BR OVC003
     FM201800 VRB03KT 6SM BR SCT004
     FM201900 VRB03KT P6SM SCT250=

USA.gov is the U.S. government's official web portal to all federal, state and local government web resources and services.